createdAt,value
2018-01-04T00:00:16.519Z,0
2018-01-04T00:01:38.116Z,0
2018-01-04T00:03:00.086Z,0
2018-01-04T00:04:21.490Z,0
2018-01-04T00:05:43.093Z,0
2018-01-04T00:07:05.346Z,0
2018-01-04T00:08:27.219Z,0
2018-01-04T00:09:49.419Z,0
2018-01-04T00:11:11.356Z,0
2018-01-04T00:12:33.054Z,0
2018-01-04T00:13:55.066Z,0
2018-01-04T00:15:16.957Z,0
2018-01-04T00:16:39.018Z,0
2018-01-04T00:18:01.299Z,0
2018-01-04T00:19:23.457Z,0
2018-01-04T00:20:45.609Z,0
2018-01-04T00:22:07.743Z,0
2018-01-04T00:23:29.656Z,0
2018-01-04T00:24:51.891Z,0
2018-01-04T00:26:13.771Z,0
2018-01-04T00:27:35.745Z,0
2018-01-04T00:28:57.880Z,0
2018-01-04T00:30:20.022Z,0
2018-01-04T00:31:42.263Z,0
2018-01-04T00:33:04.145Z,0
2018-01-04T00:34:26.022Z,0
2018-01-04T00:35:47.625Z,0
2018-01-04T00:37:09.293Z,0
2018-01-04T00:38:31.477Z,0
2018-01-04T00:39:53.186Z,0
2018-01-04T00:41:15.096Z,0
2018-01-04T00:42:37.221Z,0
2018-01-04T00:43:59.094Z,0
2018-01-04T00:45:20.714Z,0
2018-01-04T00:46:42.885Z,0
2018-01-04T00:48:04.758Z,0
2018-01-04T00:49:26.630Z,0
2018-01-04T00:50:48.881Z,0
2018-01-04T00:52:10.774Z,0
2018-01-04T00:53:32.720Z,0
2018-01-04T00:54:54.851Z,0
2018-01-04T00:56:16.454Z,0
2018-01-04T00:57:38.332Z,0
2018-01-04T00:59:00.201Z,0
2018-01-04T01:00:22.117Z,0
2018-01-04T01:01:43.717Z,0
2018-01-04T01:03:05.071Z,0
2018-01-04T01:04:26.953Z,0
2018-01-04T01:05:49.251Z,0
2018-01-04T01:07:11.247Z,0
2018-01-04T01:08:32.647Z,0
2018-01-04T01:09:54.603Z,0
2018-01-04T01:11:16.742Z,0
2018-01-04T01:12:38.345Z,0
2018-01-04T01:14:00.519Z,0
2018-01-04T01:15:22.759Z,0
2018-01-04T01:16:44.362Z,0
2018-01-04T01:18:06.608Z,0
2018-01-04T01:19:28.635Z,0
2018-01-04T01:20:50.604Z,0
2018-01-04T01:22:12.535Z,0
2018-01-04T01:23:34.407Z,0
2018-01-04T01:24:56.296Z,0
2018-01-04T01:26:17.985Z,0
2018-01-04T01:27:39.967Z,0
2018-01-04T01:29:02.088Z,0
2018-01-04T01:30:23.964Z,0
2018-01-04T01:31:45.986Z,0
2018-01-04T01:33:07.340Z,0
2018-01-04T01:34:29.006Z,0
2018-01-04T01:35:51.126Z,0
2018-01-04T01:37:13.265Z,0
2018-01-04T01:38:35.267Z,0
2018-01-04T01:39:57.382Z,0
2018-01-04T01:41:19.537Z,0
2018-01-04T01:42:41.507Z,0
2018-01-04T01:44:03.371Z,0
2018-01-04T01:45:25.235Z,0
2018-01-04T01:46:47.438Z,0
2018-01-04T01:48:09.343Z,0
2018-01-04T01:49:31.366Z,0
2018-01-04T01:50:52.718Z,0
2018-01-04T01:52:14.572Z,0
2018-01-04T01:53:36.875Z,0
2018-01-04T01:54:58.215Z,0
2018-01-04T01:56:20.076Z,0
2018-01-04T01:57:42.014Z,0
2018-01-04T01:59:03.997Z,0
2018-01-04T02:00:25.957Z,0
2018-01-04T02:01:47.594Z,0
2018-01-04T02:03:09.206Z,0
2018-01-04T02:04:31.360Z,0
2018-01-04T02:05:53.492Z,0
2018-01-04T02:07:15.610Z,0
2018-01-04T02:08:37.766Z,0
2018-01-04T02:09:59.898Z,0
2018-01-04T02:11:21.767Z,0
2018-01-04T02:12:43.891Z,0
2018-01-04T02:14:05.517Z,0
2018-01-04T02:15:27.652Z,0
2018-01-04T02:16:49.541Z,0
2018-01-04T02:18:11.397Z,0
2018-01-04T02:19:33.307Z,0
2018-01-04T02:20:55.171Z,0
2018-01-04T02:22:17.272Z,0
2018-01-04T02:23:39.049Z,0
2018-01-04T02:25:00.936Z,0
2018-01-04T02:26:23.065Z,0
2018-01-04T02:27:45.179Z,0
2018-01-04T02:29:07.315Z,0
2018-01-04T02:30:29.194Z,0
2018-01-04T02:31:51.085Z,0
2018-01-04T02:33:13.084Z,0
2018-01-04T02:34:35.223Z,0
2018-01-04T02:35:57.128Z,0
2018-01-04T02:37:18.729Z,0
2018-01-04T02:38:40.653Z,0
2018-01-04T02:40:02.266Z,0
2018-01-04T02:41:23.614Z,0
2018-01-04T02:42:45.488Z,0
2018-01-04T02:44:06.843Z,0
2018-01-04T02:45:28.282Z,0
2018-01-04T02:46:50.156Z,0
2018-01-04T02:48:12.070Z,0
2018-01-04T02:49:34.242Z,0
2018-01-04T02:50:56.365Z,0
2018-01-04T02:52:18.499Z,0
2018-01-04T02:53:40.090Z,0
2018-01-04T02:55:01.961Z,0
2018-01-04T02:56:24.167Z,0
2018-01-04T02:57:45.787Z,0
2018-01-04T02:59:07.651Z,0
2018-01-04T03:00:29.771Z,0
2018-01-04T03:01:51.390Z,0
2018-01-04T03:03:12.860Z,0
2018-01-04T03:04:35.069Z,0
2018-01-04T03:05:56.696Z,0
2018-01-04T03:07:18.567Z,0
2018-01-04T03:08:40.435Z,0
2018-01-04T03:10:02.082Z,0
2018-01-04T03:11:23.135Z,0
2018-01-04T03:12:45.020Z,0
2018-01-04T03:14:06.927Z,0
2018-01-04T03:15:28.828Z,0
2018-01-04T03:16:50.177Z,0
2018-01-04T03:18:12.301Z,0
2018-01-04T03:19:33.651Z,0
2018-01-04T03:20:55.527Z,0
2018-01-04T03:22:17.377Z,0
2018-01-04T03:23:38.958Z,0
2018-01-04T03:25:01.162Z,0
2018-01-04T03:26:23.023Z,0
2018-01-04T03:27:44.617Z,0
2018-01-04T03:29:06.242Z,0
2018-01-04T03:30:28.070Z,0
2018-01-04T03:31:50.201Z,0
2018-01-04T03:33:12.330Z,0
2018-01-04T03:34:34.181Z,0
2018-01-04T03:35:56.148Z,0
2018-01-04T03:37:18.004Z,0
2018-01-04T03:38:39.877Z,0
2018-01-04T03:40:01.478Z,0
2018-01-04T03:41:23.067Z,0
2018-01-04T03:42:44.688Z,0
2018-01-04T03:44:06.566Z,0
2018-01-04T03:45:28.411Z,0
2018-01-04T03:46:50.254Z,0
2018-01-04T03:48:12.130Z,0
2018-01-04T03:49:33.834Z,0
2018-01-04T03:50:55.832Z,0
2018-01-04T03:52:17.473Z,0
2018-01-04T03:53:39.332Z,0
2018-01-04T03:55:01.486Z,0
2018-01-04T03:56:23.728Z,0
2018-01-04T03:57:45.868Z,0
2018-01-04T03:59:07.730Z,0
2018-01-04T04:00:29.958Z,0
2018-01-04T04:01:51.807Z,0
2018-01-04T04:03:13.909Z,0
2018-01-04T04:04:35.536Z,0
2018-01-04T04:05:57.284Z,0
2018-01-04T04:07:19.159Z,0
2018-01-04T04:08:41.039Z,0
2018-01-04T04:10:03.204Z,0
2018-01-04T04:11:24.838Z,0
2018-01-04T04:12:46.614Z,0
2018-01-04T04:14:08.237Z,0
2018-01-04T04:15:29.836Z,0
2018-01-04T04:16:52.020Z,0
2018-01-04T04:18:13.877Z,0
2018-01-04T04:19:35.216Z,0
2018-01-04T04:20:57.184Z,0
2018-01-04T04:22:18.793Z,0
2018-01-04T04:23:40.755Z,0
2018-01-04T04:25:02.405Z,0
2018-01-04T04:26:24.578Z,0
2018-01-04T04:27:46.677Z,0
2018-01-04T04:29:08.518Z,0
2018-01-04T04:30:29.867Z,0
2018-01-04T04:31:51.719Z,0
2018-01-04T04:33:13.721Z,0
2018-01-04T04:34:35.897Z,0
2018-01-04T04:35:58.038Z,0
2018-01-04T04:37:19.904Z,0
2018-01-04T04:38:41.517Z,0
2018-01-04T04:40:03.142Z,0
2018-01-04T04:41:24.872Z,0
2018-01-04T04:42:46.737Z,0
2018-01-04T04:44:08.343Z,0
2018-01-04T04:45:29.928Z,0
2018-01-04T04:46:51.608Z,0
2018-01-04T04:48:13.774Z,0
2018-01-04T04:49:35.400Z,0
2018-01-04T04:50:57.282Z,0
2018-01-04T04:52:19.142Z,0
2018-01-04T04:53:40.828Z,0
2018-01-04T04:55:02.719Z,0
2018-01-04T04:56:24.570Z,0
2018-01-04T04:57:45.917Z,0
2018-01-04T04:59:07.885Z,0
2018-01-04T05:00:29.763Z,0
2018-01-04T05:01:51.460Z,0
2018-01-04T05:03:12.803Z,0
2018-01-04T05:04:33.960Z,0
2018-01-04T05:05:55.645Z,0
2018-01-04T05:07:16.966Z,0
2018-01-04T05:08:38.326Z,0
2018-01-04T05:10:00.559Z,0
2018-01-04T05:11:22.990Z,0
2018-01-04T05:12:44.190Z,0
2018-01-04T05:14:05.617Z,0
2018-01-04T05:15:27.254Z,0
2018-01-04T05:16:48.867Z,0
2018-01-04T05:18:10.986Z,0
2018-01-04T05:19:33.236Z,0
2018-01-04T05:20:54.842Z,0
2018-01-04T05:22:16.793Z,0
2018-01-04T05:23:38.393Z,0
2018-01-04T05:24:59.535Z,0
2018-01-04T05:26:20.882Z,0
2018-01-04T05:27:42.533Z,0
2018-01-04T05:29:04.510Z,0
2018-01-04T05:30:26.181Z,0
2018-01-04T05:31:48.241Z,0
2018-01-04T05:33:10.467Z,0
2018-01-04T05:34:32.698Z,0
2018-01-04T05:35:54.196Z,0
2018-01-04T05:37:15.565Z,0
2018-01-04T05:38:37.163Z,0
2018-01-04T05:39:59.028Z,0
2018-01-04T05:41:20.915Z,0
2018-01-04T05:42:42.824Z,0
2018-01-04T05:44:04.164Z,0
2018-01-04T05:45:25.768Z,0
2018-01-04T05:46:47.736Z,0
2018-01-04T05:48:09.610Z,0
2018-01-04T05:49:31.203Z,0
2018-01-04T05:50:53.051Z,0
2018-01-04T05:52:15.162Z,0
2018-01-04T05:53:36.836Z,0
2018-01-04T05:54:58.702Z,0
2018-01-04T05:56:20.034Z,0
2018-01-04T05:57:41.668Z,0
2018-01-04T05:59:02.750Z,0
2018-01-04T06:00:24.654Z,0
2018-01-04T06:01:46.406Z,0
2018-01-04T06:03:08.303Z,0
2018-01-04T06:04:29.914Z,0
2018-01-04T06:05:51.521Z,0
2018-01-04T06:07:13.718Z,0
2018-01-04T06:08:35.599Z,0
2018-01-04T06:09:57.538Z,0
2018-01-04T06:11:19.678Z,0
2018-01-04T06:12:41.789Z,0
2018-01-04T06:14:03.114Z,0
2018-01-04T06:15:25.247Z,0
2018-01-04T06:16:47.147Z,0
2018-01-04T06:18:08.775Z,0
2018-01-04T06:19:30.375Z,0
2018-01-04T06:20:52.277Z,0
2018-01-04T06:22:14.206Z,0
2018-01-04T06:23:36.094Z,0
2018-01-04T06:24:57.435Z,0
2018-01-04T06:26:19.326Z,0
2018-01-04T06:27:41.286Z,0
2018-01-04T06:29:02.909Z,0
2018-01-04T06:30:24.586Z,0
2018-01-04T06:31:46.454Z,0
2018-01-04T06:33:07.533Z,0
2018-01-04T06:34:29.059Z,0
2018-01-04T06:35:50.747Z,0
2018-01-04T06:37:12.872Z,0
2018-01-04T06:38:34.771Z,0
2018-01-04T06:39:58.417Z,0
2018-01-04T06:41:20.063Z,0
2018-01-04T06:42:41.678Z,0
2018-01-04T06:44:03.337Z,0
2018-01-04T06:45:24.745Z,0
2018-01-04T06:46:46.865Z,0
2018-01-04T06:48:08.936Z,0
2018-01-04T06:49:30.020Z,0
2018-01-04T06:50:51.426Z,0
2018-01-04T06:52:13.533Z,0
2018-01-04T06:53:35.368Z,0
2018-01-04T06:54:57.229Z,0
2018-01-04T06:56:19.404Z,0
2018-01-04T06:57:41.337Z,0
2018-01-04T06:59:03.201Z,0
2018-01-04T07:00:24.913Z,0
2018-01-04T07:01:46.255Z,0
2018-01-04T07:03:08.115Z,0
2018-01-04T07:04:29.714Z,0
2018-01-04T07:05:51.848Z,0
2018-01-04T07:07:13.983Z,0
2018-01-04T07:08:35.582Z,0
2018-01-04T07:09:57.793Z,0
2018-01-04T07:11:19.788Z,0
2018-01-04T07:12:41.215Z,0
2018-01-04T07:14:03.093Z,0
2018-01-04T07:15:24.698Z,0
2018-01-04T07:16:46.997Z,0
2018-01-04T07:18:08.915Z,0
2018-01-04T07:19:30.806Z,0
2018-01-04T07:20:52.482Z,0
2018-01-04T07:22:14.458Z,0
2018-01-04T07:23:36.382Z,0
2018-01-04T07:24:57.478Z,0
2018-01-04T07:26:19.613Z,0
2018-01-04T07:27:41.237Z,0
2018-01-04T07:29:03.748Z,0
2018-01-04T07:30:25.159Z,0
2018-01-04T07:31:47.049Z,0
2018-01-04T07:33:09.319Z,0
2018-01-04T07:34:30.946Z,0
2018-01-04T07:35:52.870Z,0
2018-01-04T07:37:14.469Z,5
2018-01-04T07:38:35.804Z,5
2018-01-04T07:39:57.916Z,5
2018-01-04T07:41:19.517Z,0
2018-01-04T07:42:41.606Z,0
2018-01-04T07:44:03.313Z,0
2018-01-04T07:45:25.546Z,5
2018-01-04T07:46:47.896Z,5
2018-01-04T07:48:09.786Z,10
2018-01-04T07:49:31.956Z,10
2018-01-04T07:50:54.145Z,10
2018-01-04T07:52:15.880Z,10
2018-01-04T07:53:37.269Z,10
2018-01-04T07:54:59.433Z,10
2018-01-04T07:56:21.285Z,15
2018-01-04T07:57:43.227Z,15
2018-01-04T07:59:05.099Z,15
2018-01-04T08:00:27.303Z,10
2018-01-04T08:01:49.172Z,10
2018-01-04T08:03:11.027Z,15
2018-01-04T08:04:32.874Z,15
2018-01-04T08:05:54.545Z,20
2018-01-04T08:07:16.465Z,20
2018-01-04T08:08:38.328Z,20
2018-01-04T08:09:59.926Z,10
2018-01-04T08:11:22.063Z,10
2018-01-04T08:12:43.681Z,10
2018-01-04T08:14:05.015Z,15
2018-01-04T08:15:26.954Z,15
2018-01-04T08:16:49.038Z,10
2018-01-04T08:18:10.895Z,15
2018-01-04T08:19:32.503Z,15
2018-01-04T08:20:53.863Z,20
2018-01-04T08:22:15.818Z,25
2018-01-04T08:23:38.001Z,30
2018-01-04T08:25:00.228Z,30
2018-01-04T08:26:22.185Z,25
2018-01-04T08:27:44.136Z,25
2018-01-04T08:29:06.276Z,15
2018-01-04T08:30:28.435Z,20
2018-01-04T08:31:50.587Z,20
2018-01-04T08:33:12.833Z,30
2018-01-04T08:34:34.582Z,35
2018-01-04T08:35:56.449Z,25
2018-01-04T08:37:18.334Z,20
2018-01-04T08:38:39.963Z,25
2018-01-04T08:40:01.432Z,25
2018-01-04T08:41:23.481Z,30
2018-01-04T08:42:45.124Z,40
2018-01-04T08:44:07.267Z,40
2018-01-04T08:45:29.288Z,40
2018-01-04T08:46:51.216Z,40
2018-01-04T08:48:13.353Z,45
2018-01-04T08:49:34.735Z,50
2018-01-04T08:50:56.485Z,50
2018-01-04T08:52:18.351Z,50
2018-01-04T08:53:39.770Z,45
2018-01-04T08:55:01.676Z,40
2018-01-04T08:56:23.361Z,40
2018-01-04T08:57:45.029Z,35
2018-01-04T08:59:07.188Z,25
2018-01-04T09:00:29.314Z,30
2018-01-04T09:01:50.665Z,30
2018-01-04T09:03:12.807Z,30
2018-01-04T09:04:34.198Z,25
2018-01-04T09:05:56.112Z,25
2018-01-04T09:07:18.293Z,25
2018-01-04T09:08:40.283Z,35
2018-01-04T09:10:02.295Z,45
2018-01-04T09:11:23.927Z,50
2018-01-04T09:12:45.944Z,55
2018-01-04T09:14:08.093Z,50
2018-01-04T09:15:29.985Z,50
2018-01-04T09:16:52.085Z,50
2018-01-04T09:18:13.524Z,50
2018-01-04T09:19:35.385Z,45
2018-01-04T09:20:57.255Z,50
2018-01-04T09:22:18.888Z,50
2018-01-04T09:23:40.766Z,50
2018-01-04T09:25:02.365Z,50
2018-01-04T09:26:23.754Z,50
2018-01-04T09:27:45.698Z,50
2018-01-04T09:29:07.895Z,55
2018-01-04T09:30:29.554Z,60
2018-01-04T09:31:51.158Z,55
2018-01-04T09:33:13.039Z,55
2018-01-04T09:34:35.343Z,50
2018-01-04T09:35:57.317Z,50
2018-01-04T09:37:19.207Z,50
2018-01-04T09:38:41.078Z,60
2018-01-04T09:40:02.955Z,65
2018-01-04T09:41:24.608Z,65
2018-01-04T09:42:46.469Z,65
2018-01-04T09:44:08.081Z,65
2018-01-04T09:45:30.338Z,60
2018-01-04T09:46:52.457Z,65
2018-01-04T09:48:14.595Z,75
2018-01-04T09:49:36.716Z,70
2018-01-04T09:50:58.330Z,75
2018-01-04T09:52:20.486Z,65
2018-01-04T09:53:42.363Z,80
2018-01-04T09:55:04.533Z,85
2018-01-04T09:56:26.434Z,85
2018-01-04T09:57:48.365Z,85
2018-01-04T09:59:10.086Z,95
2018-01-04T10:00:32.243Z,100
2018-01-04T10:01:53.639Z,95
2018-01-04T10:03:15.815Z,95
2018-01-04T10:04:37.936Z,100
2018-01-04T10:05:59.552Z,100
2018-01-04T10:07:21.565Z,115
2018-01-04T10:08:43.153Z,130
2018-01-04T10:10:05.050Z,105
2018-01-04T10:11:26.935Z,140
2018-01-04T10:12:48.554Z,145
2018-01-04T10:14:10.167Z,155
2018-01-04T10:15:32.084Z,170
2018-01-04T10:16:53.802Z,160
2018-01-04T10:18:15.678Z,145
2018-01-04T10:19:37.925Z,140
2018-01-04T10:20:59.860Z,145
2018-01-04T10:22:21.737Z,145
2018-01-04T10:23:43.720Z,135
2018-01-04T10:25:05.866Z,140
2018-01-04T10:26:27.798Z,140
2018-01-04T10:27:49.413Z,130
2018-01-04T10:29:11.617Z,125
2018-01-04T10:30:33.267Z,105
2018-01-04T10:31:55.154Z,100
2018-01-04T10:33:17.433Z,105
2018-01-04T10:34:39.045Z,95
2018-01-04T10:36:00.728Z,105
2018-01-04T10:37:22.340Z,110
2018-01-04T10:38:44.464Z,115
2018-01-04T10:40:06.344Z,105
2018-01-04T10:41:28.494Z,85
2018-01-04T10:42:50.626Z,80
2018-01-04T10:44:12.616Z,80
2018-01-04T10:45:34.528Z,95
2018-01-04T10:46:56.146Z,100
2018-01-04T10:48:18.090Z,100
2018-01-04T10:49:40.286Z,105
2018-01-04T10:51:02.456Z,95
2018-01-04T10:52:23.935Z,80
2018-01-04T10:53:46.350Z,85
2018-01-04T10:55:08.516Z,80
2018-01-04T10:56:30.656Z,80
2018-01-04T10:57:52.604Z,90
2018-01-04T10:59:14.780Z,75
2018-01-04T11:00:36.781Z,95
2018-01-04T11:01:58.197Z,105
2018-01-04T11:03:20.428Z,105
2018-01-04T11:04:42.575Z,95
2018-01-04T11:06:04.731Z,105
2018-01-04T11:07:26.123Z,100
2018-01-04T11:08:47.586Z,100
2018-01-04T11:10:09.563Z,95
2018-01-04T11:11:31.499Z,95
2018-01-04T11:12:52.958Z,100
2018-01-04T11:14:14.348Z,105
2018-01-04T11:15:36.267Z,100
2018-01-04T11:16:58.151Z,95
2018-01-04T11:18:19.627Z,100
2018-01-04T11:19:41.607Z,105
2018-01-04T11:21:03.541Z,120
2018-01-04T11:22:25.743Z,115
2018-01-04T11:23:48.047Z,110
2018-01-04T11:25:10.029Z,110
2018-01-04T11:26:31.704Z,105
2018-01-04T11:27:53.920Z,105
2018-01-04T11:29:15.812Z,135
2018-01-04T11:30:37.697Z,155
2018-01-04T11:31:59.309Z,165
2018-01-04T11:33:21.173Z,165
2018-01-04T11:34:43.406Z,170
2018-01-04T11:36:05.362Z,170
2018-01-04T11:37:27.290Z,175
2018-01-04T11:38:48.897Z,180
2018-01-04T11:40:10.778Z,175
2018-01-04T11:41:32.925Z,175
2018-01-04T11:42:54.042Z,155
2018-01-04T11:44:15.921Z,150
2018-01-04T11:45:37.827Z,150
2018-01-04T11:46:59.779Z,140
2018-01-04T11:48:21.727Z,130
2018-01-04T11:49:43.909Z,115
2018-01-04T11:51:05.813Z,110
2018-01-04T11:52:27.705Z,105
2018-01-04T11:53:49.914Z,110
2018-01-04T11:55:12.055Z,115
2018-01-04T11:56:33.404Z,110
2018-01-04T11:57:55.615Z,110
2018-01-04T11:59:17.529Z,100
2018-01-04T12:00:39.683Z,105
2018-01-04T12:02:00.791Z,100
2018-01-04T12:03:23.016Z,95
2018-01-04T12:04:44.874Z,95
2018-01-04T12:06:07.009Z,95
2018-01-04T12:07:28.886Z,100
2018-01-04T12:08:51.223Z,105
2018-01-04T12:10:12.844Z,110
2018-01-04T12:11:35.092Z,115
2018-01-04T12:12:57.405Z,125
2018-01-04T12:14:19.025Z,165
2018-01-04T12:15:41.249Z,165
2018-01-04T12:17:03.550Z,145
2018-01-04T12:18:25.583Z,160
2018-01-04T12:19:47.205Z,155
2018-01-04T12:21:09.090Z,125
2018-01-04T12:22:31.245Z,135
2018-01-04T12:23:52.898Z,115
2018-01-04T12:25:15.156Z,85
2018-01-04T12:26:36.785Z,90
2018-01-04T12:27:58.730Z,100
2018-01-04T12:29:20.864Z,95
2018-01-04T12:30:42.811Z,90
2018-01-04T12:32:04.962Z,85
2018-01-04T12:33:27.076Z,85
2018-01-04T12:34:48.706Z,75
2018-01-04T12:36:10.595Z,75
2018-01-04T12:37:32.469Z,70
2018-01-04T12:38:54.600Z,70
2018-01-04T12:40:16.609Z,75
2018-01-04T12:41:38.491Z,80
2018-01-04T12:43:00.358Z,85
2018-01-04T12:44:22.204Z,80
2018-01-04T12:45:43.823Z,75
2018-01-04T12:47:05.497Z,60
2018-01-04T12:48:27.470Z,70
2018-01-04T12:49:49.386Z,65
2018-01-04T12:51:11.564Z,55
2018-01-04T12:52:33.688Z,60
2018-01-04T12:53:55.452Z,60
2018-01-04T12:55:17.090Z,55
2018-01-04T12:56:39.084Z,55
2018-01-04T12:58:01.247Z,60
2018-01-04T12:59:22.848Z,60
2018-01-04T13:00:44.455Z,60
2018-01-04T13:02:06.373Z,50
2018-01-04T13:03:28.338Z,55
2018-01-04T13:04:49.675Z,55
2018-01-04T13:06:11.234Z,55
2018-01-04T13:07:33.398Z,60
2018-01-04T13:08:55.309Z,65
2018-01-04T13:10:17.441Z,75
2018-01-04T13:11:39.587Z,70
2018-01-04T13:13:01.510Z,70
2018-01-04T13:14:23.502Z,65
2018-01-04T13:15:45.653Z,55
2018-01-04T13:17:07.560Z,40
2018-01-04T13:18:29.481Z,35
2018-01-04T13:19:51.684Z,35
2018-01-04T13:21:13.302Z,35
2018-01-04T13:22:35.474Z,35
2018-01-04T13:23:57.682Z,35
2018-01-04T13:25:19.946Z,40
2018-01-04T13:26:42.116Z,35
2018-01-04T13:28:04.254Z,35
2018-01-04T13:29:26.182Z,35
2018-01-04T13:30:47.799Z,30
2018-01-04T13:32:09.676Z,30
2018-01-04T13:33:31.802Z,25
2018-01-04T13:34:54.268Z,25
2018-01-04T13:36:16.433Z,20
2018-01-04T13:37:38.054Z,20
2018-01-04T13:38:59.696Z,20
2018-01-04T13:40:21.317Z,20
2018-01-04T13:41:42.998Z,15
2018-01-04T13:43:04.640Z,15
2018-01-04T13:44:26.521Z,10
2018-01-04T13:45:48.434Z,10
2018-01-04T13:47:09.804Z,10
2018-01-04T13:48:31.731Z,15
2018-01-04T13:49:53.701Z,10
2018-01-04T13:51:15.620Z,5
2018-01-04T13:52:37.848Z,5
2018-01-04T13:53:59.539Z,5
2018-01-04T13:55:21.496Z,5
2018-01-04T13:56:43.133Z,5
2018-01-04T13:58:05.371Z,5
2018-01-04T13:59:27.595Z,5
2018-01-04T14:00:49.462Z,5
2018-01-04T14:02:11.336Z,5
2018-01-04T14:03:33.301Z,5
2018-01-04T14:04:55.333Z,5
2018-01-04T14:06:17.247Z,5
2018-01-04T14:07:38.870Z,5
2018-01-04T14:09:00.599Z,5
2018-01-04T14:10:22.511Z,10
2018-01-04T14:11:44.134Z,10
2018-01-04T14:13:06.064Z,10
2018-01-04T14:14:27.945Z,10
2018-01-04T14:15:49.913Z,10
2018-01-04T14:17:11.294Z,10
2018-01-04T14:18:33.225Z,10
2018-01-04T14:19:55.389Z,10
2018-01-04T14:21:17.557Z,15
2018-01-04T14:22:39.451Z,15
2018-01-04T14:24:01.864Z,15
2018-01-04T14:25:23.595Z,15
2018-01-04T14:26:45.495Z,20
2018-01-04T14:28:07.407Z,20
2018-01-04T14:29:29.561Z,20
2018-01-04T14:30:51.697Z,20
2018-01-04T14:32:13.591Z,20
2018-01-04T14:33:35.557Z,20
2018-01-04T14:34:57.468Z,20
2018-01-04T14:36:19.507Z,20
2018-01-04T14:37:41.142Z,20
2018-01-04T14:39:03.026Z,20
2018-01-04T14:40:25.276Z,20
2018-01-04T14:41:46.865Z,20
2018-01-04T14:43:08.518Z,20
2018-01-04T14:44:30.676Z,20
2018-01-04T14:45:52.545Z,15
2018-01-04T14:47:14.796Z,15
2018-01-04T14:48:36.634Z,15
2018-01-04T14:49:58.796Z,15
2018-01-04T14:51:20.689Z,15
2018-01-04T14:52:42.573Z,15
2018-01-04T14:54:04.836Z,15
2018-01-04T14:55:27.018Z,10
2018-01-04T14:56:49.871Z,10
2018-01-04T14:58:11.828Z,10
2018-01-04T14:59:33.455Z,5
2018-01-04T15:00:55.607Z,5
2018-01-04T15:02:17.771Z,5
2018-01-04T15:03:39.756Z,5
2018-01-04T15:05:01.385Z,5
2018-01-04T15:06:23.546Z,5
2018-01-04T15:07:45.436Z,5
2018-01-04T15:09:07.354Z,5
2018-01-04T15:10:29.241Z,5
2018-01-04T15:11:50.843Z,5
2018-01-04T15:13:12.289Z,5
2018-01-04T15:14:34.553Z,0
2018-01-04T15:15:56.697Z,0
2018-01-04T15:17:18.856Z,0
2018-01-04T15:18:41.006Z,0
2018-01-04T15:20:02.916Z,0
2018-01-04T15:21:24.821Z,0
2018-01-04T15:22:47.035Z,0
2018-01-04T15:24:08.696Z,0
2018-01-04T15:25:30.846Z,0
2018-01-04T15:26:52.600Z,0
2018-01-04T15:28:14.559Z,0
2018-01-04T15:29:36.711Z,0
2018-01-04T15:30:58.650Z,0
2018-01-04T15:32:20.964Z,0
2018-01-04T15:33:43.119Z,0
2018-01-04T15:35:05.316Z,0
2018-01-04T15:36:27.186Z,0
2018-01-04T15:37:48.782Z,0
2018-01-04T15:39:11.008Z,0
2018-01-04T15:40:32.749Z,0
2018-01-04T15:41:54.117Z,0
2018-01-04T15:43:15.756Z,0
2018-01-04T15:44:37.969Z,0
2018-01-04T15:45:59.582Z,0
2018-01-04T15:47:21.034Z,0
2018-01-04T15:49:15.308Z,0
2018-01-04T15:50:36.909Z,0
2018-01-04T15:51:58.516Z,0
2018-01-04T15:53:20.419Z,0
2018-01-04T15:54:42.056Z,0
2018-01-04T15:56:03.676Z,0
2018-01-04T15:57:25.816Z,0
2018-01-04T15:58:47.475Z,0
2018-01-04T16:00:09.382Z,0
2018-01-04T16:01:31.047Z,0
2018-01-04T16:02:52.946Z,0
2018-01-04T16:04:14.581Z,0
2018-01-04T16:05:36.526Z,0
2018-01-04T16:06:58.137Z,0
2018-01-04T16:08:21.179Z,0
2018-01-04T16:09:42.895Z,0
2018-01-04T16:11:04.776Z,0
2018-01-04T16:12:26.412Z,0
2018-01-04T16:13:48.373Z,0
2018-01-04T16:15:09.759Z,0
2018-01-04T16:16:31.388Z,0
2018-01-04T16:17:53.526Z,0
2018-01-04T16:19:15.025Z,0
2018-01-04T16:20:36.658Z,0
2018-01-04T16:21:58.010Z,0
2018-01-04T16:23:19.639Z,0
2018-01-04T16:24:41.357Z,0
2018-01-04T16:26:02.754Z,0
2018-01-04T16:27:24.706Z,0
2018-01-04T16:28:45.805Z,0
2018-01-04T16:30:07.948Z,0
2018-01-04T16:31:29.565Z,0
2018-01-04T16:32:50.932Z,0
2018-01-04T16:34:12.797Z,0
2018-01-04T16:35:34.426Z,0
2018-01-04T16:36:56.060Z,0
2018-01-04T16:38:18.041Z,0
2018-01-04T16:39:39.960Z,0
2018-01-04T16:41:01.839Z,0
2018-01-04T16:42:23.457Z,0
2018-01-04T16:43:45.375Z,0
2018-01-04T16:45:07.273Z,0
2018-01-04T16:46:29.440Z,0
2018-01-04T16:47:51.595Z,0
2018-01-04T16:49:13.537Z,0
2018-01-04T16:50:35.805Z,0
2018-01-04T16:51:57.722Z,0
2018-01-04T16:53:19.877Z,0
2018-01-04T16:54:41.858Z,0
2018-01-04T16:56:03.775Z,0
2018-01-04T16:57:25.568Z,0
2018-01-04T16:58:47.449Z,0
2018-01-04T17:00:09.322Z,0
2018-01-04T17:01:30.992Z,0
2018-01-04T17:02:52.777Z,0
2018-01-04T17:04:14.660Z,0
2018-01-04T17:05:36.354Z,0
2018-01-04T17:06:58.691Z,0
2018-01-04T17:08:20.760Z,0
2018-01-04T17:09:42.918Z,0
2018-01-04T17:11:05.054Z,0
2018-01-04T17:12:26.729Z,0
2018-01-04T17:13:48.669Z,0
2018-01-04T17:15:10.618Z,0
2018-01-04T17:16:32.256Z,0
2018-01-04T17:17:53.910Z,0
2018-01-04T17:19:15.614Z,0
2018-01-04T17:20:37.834Z,0
2018-01-04T17:21:59.728Z,0
2018-01-04T17:23:22.034Z,0
2018-01-04T17:24:44.175Z,0
2018-01-04T17:26:05.926Z,0
2018-01-04T17:27:28.188Z,0
2018-01-04T17:28:50.340Z,0
2018-01-04T17:30:12.176Z,0
2018-01-04T17:31:34.557Z,0
2018-01-04T17:32:56.796Z,0
2018-01-04T17:34:18.732Z,0
2018-01-04T17:35:41.090Z,0
2018-01-04T17:37:03.261Z,0
2018-01-04T17:38:25.245Z,0
2018-01-04T17:39:47.191Z,0
2018-01-04T17:41:08.819Z,0
2018-01-04T17:42:30.726Z,0
2018-01-04T17:43:52.910Z,0
2018-01-04T17:45:14.835Z,0
2018-01-04T17:46:36.558Z,0
2018-01-04T17:47:58.188Z,0
2018-01-04T17:49:20.466Z,0
2018-01-04T17:50:42.489Z,0
2018-01-04T17:52:04.731Z,0
2018-01-04T17:53:26.767Z,0
2018-01-04T17:54:48.776Z,0
2018-01-04T17:56:10.997Z,0
2018-01-04T17:57:32.947Z,0
2018-01-04T17:58:55.116Z,0
2018-01-04T18:00:16.811Z,0
2018-01-04T18:01:38.682Z,0
2018-01-04T18:03:01.136Z,0
2018-01-04T18:04:23.024Z,0
2018-01-04T18:05:45.241Z,0
2018-01-04T18:07:07.567Z,0
2018-01-04T18:08:29.447Z,0
2018-01-04T18:09:51.344Z,0
2018-01-04T18:11:13.155Z,0
2018-01-04T18:12:35.316Z,0
2018-01-04T18:13:57.206Z,0
2018-01-04T18:15:19.091Z,0
2018-01-04T18:16:41.338Z,0
2018-01-04T18:18:03.301Z,0
2018-01-04T18:19:25.195Z,0
2018-01-04T18:20:47.186Z,0
2018-01-04T18:22:08.870Z,0
2018-01-04T18:23:31.160Z,0
2018-01-04T18:24:53.423Z,0
2018-01-04T18:26:15.358Z,0
2018-01-04T18:27:37.596Z,0
2018-01-04T18:28:59.916Z,0
2018-01-04T18:30:22.356Z,0
2018-01-04T18:31:44.748Z,0
2018-01-04T18:33:06.957Z,0
2018-01-04T18:34:29.159Z,0
2018-01-04T18:35:51.738Z,0
2018-01-04T18:37:14.243Z,0
2018-01-04T18:38:36.162Z,0
2018-01-04T18:39:57.852Z,0
2018-01-04T18:41:20.205Z,0
2018-01-04T18:42:42.338Z,0
2018-01-04T18:44:04.047Z,0
2018-01-04T18:45:26.266Z,0
2018-01-04T18:46:48.428Z,0
2018-01-04T18:48:10.420Z,0
2018-01-04T18:49:32.646Z,0
2018-01-04T18:50:54.780Z,0
2018-01-04T18:52:16.677Z,0
2018-01-04T18:53:39.039Z,0
2018-01-04T18:55:00.675Z,0
2018-01-04T18:56:23.021Z,0
2018-01-04T18:57:45.356Z,0
2018-01-04T18:59:07.557Z,0
2018-01-04T19:00:29.442Z,0
2018-01-04T19:01:51.622Z,0
2018-01-04T19:03:13.777Z,0
2018-01-04T19:04:35.463Z,0
2018-01-04T19:05:57.681Z,0
2018-01-04T19:07:19.603Z,0
2018-01-04T19:08:41.980Z,0
2018-01-04T19:10:04.134Z,0
2018-01-04T19:11:26.383Z,0
2018-01-04T19:12:48.569Z,0
2018-01-04T19:14:10.854Z,0
2018-01-04T19:15:32.804Z,0
2018-01-04T19:16:55.099Z,0
2018-01-04T19:18:17.176Z,0
2018-01-04T19:19:38.789Z,0
2018-01-04T19:21:00.736Z,0
2018-01-04T19:22:22.673Z,0
2018-01-04T19:23:44.916Z,0
2018-01-04T19:25:06.689Z,0
2018-01-04T19:26:28.805Z,0
2018-01-04T19:27:50.994Z,0
2018-01-04T19:29:12.927Z,0
2018-01-04T19:30:35.427Z,0
2018-01-04T19:31:57.900Z,0
2018-01-04T19:33:19.816Z,0
2018-01-04T19:34:41.470Z,0
2018-01-04T19:36:03.659Z,0
2018-01-04T19:37:25.572Z,0
2018-01-04T19:38:47.736Z,0
2018-01-04T19:40:09.908Z,0
2018-01-04T19:41:31.807Z,0
2018-01-04T19:42:54.008Z,0
2018-01-04T19:44:16.250Z,0
2018-01-04T19:45:38.431Z,0
2018-01-04T19:47:00.365Z,0
2018-01-04T19:48:22.270Z,0
2018-01-04T19:49:44.482Z,0
2018-01-04T19:51:06.716Z,0